createdAt,value
2023-03-06T00:00:57.785Z,81.10
2023-03-06T00:03:27.951Z,88.78
2023-03-06T00:05:57.481Z,88.82
2023-03-06T00:08:26.704Z,81.82
2023-03-06T00:10:57.606Z,91.78
2023-03-06T00:13:26.771Z,86.75
2023-03-06T00:15:54.435Z,81.65
2023-03-06T00:18:21.922Z,82.78
2023-03-06T00:20:49.405Z,87.72
2023-03-06T00:23:16.924Z,88.35
2023-03-06T00:25:45.767Z,84.38
2023-03-06T00:28:15.727Z,81.10
2023-03-06T00:30:43.853Z,87.25
2023-03-06T00:33:11.362Z,93.28
2023-03-06T00:35:40.116Z,85.15
2023-03-06T00:38:08.145Z,92.82
2023-03-06T00:40:35.542Z,88.55
2023-03-06T00:43:02.958Z,91.03
2023-03-06T00:45:30.442Z,85.25
2023-03-06T00:47:58.045Z,82.40
2023-03-06T00:50:25.472Z,93.22
2023-03-06T00:52:52.937Z,101.47
2023-03-06T00:55:20.416Z,98.95
2023-03-06T00:57:48.855Z,95.93
2023-03-06T01:00:16.668Z,87.93
2023-03-06T01:02:44.102Z,95.25
2023-03-06T01:05:13.840Z,86.25
2023-03-06T01:07:41.285Z,92.03
2023-03-06T01:10:09.959Z,97.35
2023-03-06T01:12:37.392Z,86.65
2023-03-06T01:15:05.886Z,97.18
2023-03-06T01:17:33.321Z,95.07
2023-03-06T01:20:02.595Z,91.53
2023-03-06T01:22:30.794Z,88.43
2023-03-06T01:24:58.243Z,91.45
2023-03-06T01:27:25.685Z,93.13
2023-03-06T01:29:53.088Z,92.35
2023-03-06T01:32:21.486Z,85.68
2023-03-06T01:34:49.028Z,93.05
2023-03-06T01:37:16.477Z,91.88
2023-03-06T01:39:43.920Z,90.32
2023-03-06T01:42:11.657Z,102.18
2023-03-06T01:45:06.485Z,98.53
2023-03-06T01:47:35.658Z,89.00
2023-03-06T01:50:05.458Z,93.65
2023-03-06T01:52:49.097Z,89.60
2023-03-06T01:55:21.092Z,92.88
2023-03-06T01:57:53.165Z,92.47
2023-03-06T02:00:26.894Z,91.45
2023-03-06T02:02:57.644Z,94.10
2023-03-06T02:05:25.103Z,85.50
2023-03-06T02:07:54.344Z,85.13
2023-03-06T02:10:22.155Z,93.97
2023-03-06T02:12:51.692Z,88.15
2023-03-06T02:15:22.353Z,84.32
2023-03-06T02:17:51.958Z,83.53
2023-03-06T02:20:37.669Z,87.45
2023-03-06T02:23:20.382Z,87.78
2023-03-06T02:25:50.826Z,86.00
2023-03-06T02:28:21.573Z,81.20
2023-03-06T02:30:51.734Z,82.40
2023-03-06T02:33:26.701Z,84.00
2023-03-06T02:36:00.095Z,85.93
2023-03-06T02:38:49.028Z,91.25
2023-03-06T02:41:17.318Z,83.18
2023-03-06T02:43:48.910Z,82.63
2023-03-06T02:46:16.539Z,86.30
2023-03-06T02:48:44.474Z,81.88
2023-03-06T02:51:11.900Z,77.95
2023-03-06T02:53:39.344Z,84.82
2023-03-06T02:56:07.215Z,78.82
2023-03-06T02:58:35.661Z,77.63
2023-03-06T03:01:03.344Z,79.78
2023-03-06T03:03:33.110Z,84.32
2023-03-06T03:06:01.400Z,78.72
2023-03-06T03:08:33.271Z,79.43
2023-03-06T03:11:03.837Z,76.40
2023-03-06T03:13:38.423Z,75.40
2023-03-06T03:16:15.913Z,66.90
2023-03-06T03:18:44.664Z,75.60
2023-03-06T03:21:14.135Z,77.85
2023-03-06T03:23:41.597Z,70.68
2023-03-06T03:26:11.089Z,67.90
2023-03-06T03:28:42.147Z,70.63
2023-03-06T03:31:12.803Z,75.63
2023-03-06T03:33:40.828Z,72.70
2023-03-06T03:36:09.696Z,78.30
2023-03-06T03:38:41.419Z,80.45
2023-03-06T03:41:09.127Z,69.22
2023-03-06T03:43:36.907Z,77.85
2023-03-06T03:46:06.042Z,74.18
2023-03-06T03:48:33.776Z,72.15
2023-03-06T03:51:11.044Z,76.43
2023-03-06T03:53:42.601Z,74.75
2023-03-06T03:56:11.659Z,75.22
2023-03-06T03:58:46.438Z,74.85
2023-03-06T04:01:14.249Z,78.82
2023-03-06T04:03:41.712Z,76.40
2023-03-06T04:06:10.658Z,79.47
2023-03-06T04:08:38.734Z,73.75
2023-03-06T04:11:06.928Z,70.07
2023-03-06T04:13:34.498Z,74.78
2023-03-06T04:16:02.186Z,66.57
2023-03-06T04:18:31.893Z,70.40
2023-03-06T04:21:04.437Z,69.43
2023-03-06T04:23:32.310Z,68.15
2023-03-06T04:25:59.694Z,77.63
2023-03-06T04:28:27.288Z,71.10
2023-03-06T04:30:54.898Z,74.78
2023-03-06T04:33:23.582Z,73.65
2023-03-06T04:35:51.130Z,74.63
2023-03-06T04:38:24.081Z,78.47
2023-03-06T04:40:51.698Z,71.85
2023-03-06T04:43:19.354Z,72.13
2023-03-06T04:45:46.798Z,78.63
2023-03-06T04:48:18.611Z,75.70
2023-03-06T04:50:46.337Z,95.75
2023-03-06T04:53:14.649Z,87.88
2023-03-06T04:55:42.047Z,81.38
2023-03-06T04:58:11.980Z,87.10
2023-03-06T05:00:39.457Z,102.90
2023-03-06T05:03:06.853Z,103.55
2023-03-06T05:05:34.308Z,101.53
2023-03-06T05:08:01.678Z,107.28
2023-03-06T05:10:29.265Z,105.28
2023-03-06T05:12:56.723Z,112.60
2023-03-06T05:15:24.166Z,112.70
2023-03-06T05:17:51.682Z,109.75
2023-03-06T05:20:19.228Z,115.65
2023-03-06T05:22:46.590Z,116.75
2023-03-06T05:25:14.186Z,123.30
2023-03-06T05:27:41.890Z,124.78
2023-03-06T05:30:12.979Z,123.22
2023-03-06T05:32:40.542Z,128.98
2023-03-06T05:35:08.229Z,117.18
2023-03-06T05:37:35.546Z,118.75
2023-03-06T05:40:06.288Z,126.63
2023-03-06T05:42:33.643Z,112.50
2023-03-06T05:45:02.723Z,129.85
2023-03-06T05:47:30.512Z,119.38
2023-03-06T05:49:57.897Z,122.95
2023-03-06T05:52:25.646Z,126.07
2023-03-06T05:54:54.510Z,121.03
2023-03-06T05:57:24.147Z,121.15
2023-03-06T05:59:51.655Z,121.40
2023-03-06T06:02:19.872Z,116.82
2023-03-06T06:04:47.556Z,122.90
2023-03-06T06:07:16.435Z,118.70
2023-03-06T06:09:48.188Z,118.30
2023-03-06T06:12:15.645Z,120.63
2023-03-06T06:14:43.213Z,120.30
2023-03-06T06:17:12.571Z,119.15
2023-03-06T06:19:40.058Z,128.45
2023-03-06T06:22:07.764Z,128.13
2023-03-06T06:24:35.245Z,125.75
2023-03-06T06:27:04.096Z,119.53
2023-03-06T06:29:32.514Z,119.57
2023-03-06T06:32:00.322Z,117.15
2023-03-06T06:34:28.924Z,121.43
2023-03-06T06:36:57.306Z,119.25
2023-03-06T06:39:25.197Z,128.27
2023-03-06T06:42:09.501Z,122.20
2023-03-06T06:44:40.382Z,120.32
2023-03-06T06:47:25.148Z,113.05
2023-03-06T06:49:54.761Z,120.47
2023-03-06T06:52:24.047Z,113.35
2023-03-06T06:54:52.313Z,111.90
2023-03-06T06:57:19.944Z,112.25
2023-03-06T06:59:47.367Z,121.07
2023-03-06T07:02:15.999Z,117.75
2023-03-06T07:05:01.998Z,110.32
2023-03-06T07:07:35.645Z,109.05
2023-03-06T07:10:06.364Z,115.78
2023-03-06T07:12:35.164Z,120.00
2023-03-06T07:15:03.855Z,116.18
2023-03-06T07:17:31.230Z,113.60
2023-03-06T07:19:59.594Z,107.20
2023-03-06T07:22:27.546Z,103.60
2023-03-06T07:24:57.282Z,99.38
2023-03-06T07:27:26.238Z,103.18
2023-03-06T07:29:53.789Z,100.10
2023-03-06T07:32:21.288Z,101.32
2023-03-06T07:34:49.020Z,102.00
2023-03-06T07:37:16.379Z,102.38
2023-03-06T07:39:43.817Z,111.32
2023-03-06T07:42:13.797Z,97.03
2023-03-06T07:44:48.210Z,101.63
2023-03-06T07:47:15.621Z,101.65
2023-03-06T07:49:42.989Z,110.88
2023-03-06T07:52:10.466Z,105.38
2023-03-06T07:54:37.917Z,104.45
2023-03-06T07:57:05.341Z,106.95
2023-03-06T07:59:32.762Z,106.80
2023-03-06T08:02:00.158Z,101.05
2023-03-06T08:04:29.008Z,98.07
2023-03-06T08:06:59.667Z,106.80
2023-03-06T08:09:27.266Z,109.20
2023-03-06T08:11:54.867Z,102.30
2023-03-06T08:14:22.494Z,107.70
2023-03-06T08:16:51.205Z,110.75
2023-03-06T08:19:18.577Z,108.85
2023-03-06T08:21:46.040Z,104.32
2023-03-06T08:24:16.557Z,107.93
2023-03-06T08:26:44.089Z,116.38
2023-03-06T08:29:12.170Z,103.35
2023-03-06T08:31:42.722Z,117.03
2023-03-06T08:34:13.445Z,108.20
2023-03-06T08:36:41.088Z,109.03
2023-03-06T08:39:08.969Z,114.63
2023-03-06T08:41:37.488Z,106.05
2023-03-06T08:44:05.596Z,105.63
2023-03-06T08:46:33.896Z,116.15
2023-03-06T08:49:01.812Z,104.85
2023-03-06T08:51:29.529Z,109.15
2023-03-06T08:53:58.362Z,97.20
2023-03-06T08:56:31.222Z,102.60
2023-03-06T08:59:00.723Z,99.40
2023-03-06T09:01:30.167Z,99.43
2023-03-06T09:04:00.127Z,98.30
2023-03-06T09:06:31.461Z,89.32
2023-03-06T09:08:59.598Z,95.53
2023-03-06T09:11:28.321Z,88.38
2023-03-06T09:13:56.415Z,89.70
2023-03-06T09:16:24.457Z,97.47
2023-03-06T09:18:53.101Z,85.47
2023-03-06T09:21:22.290Z,80.47
2023-03-06T09:23:50.436Z,92.20
2023-03-06T09:26:18.610Z,97.90
2023-03-06T09:28:46.983Z,80.55
2023-03-06T09:31:17.093Z,93.68
2023-03-06T09:33:45.251Z,90.53
2023-03-06T09:36:16.922Z,91.88
2023-03-06T09:38:45.843Z,84.43
2023-03-06T09:41:27.549Z,79.65
2023-03-06T09:44:08.759Z,83.00
2023-03-06T09:46:46.665Z,78.68
2023-03-06T09:49:14.006Z,80.47
2023-03-06T09:51:59.186Z,79.43
2023-03-06T09:54:54.407Z,69.65
2023-03-06T09:58:00.682Z,67.57
2023-03-06T10:00:48.285Z,76.28
2023-03-06T10:03:31.077Z,65.47
2023-03-06T10:06:02.783Z,63.92
2023-03-06T10:08:48.811Z,66.63
2023-03-06T10:11:24.360Z,69.20
2023-03-06T10:14:28.240Z,71.57
2023-03-06T10:16:56.564Z,69.18
2023-03-06T10:19:37.504Z,63.72
2023-03-06T10:22:26.609Z,67.93
2023-03-06T10:25:28.109Z,59.90
2023-03-06T10:28:16.228Z,63.15
2023-03-06T10:30:49.817Z,63.55
2023-03-06T10:33:44.142Z,64.80
2023-03-06T10:36:16.084Z,68.28
2023-03-06T10:38:45.223Z,66.45
2023-03-06T10:41:12.595Z,61.55
2023-03-06T10:44:04.403Z,69.00
2023-03-06T10:46:37.493Z,69.03
2023-03-06T10:49:24.920Z,62.08
2023-03-06T10:52:05.713Z,69.15
2023-03-06T10:54:36.274Z,68.70
2023-03-06T10:57:28.031Z,82.10
2023-03-06T11:00:08.233Z,72.82
2023-03-06T11:02:41.166Z,67.70
2023-03-06T11:05:21.812Z,64.18
2023-03-06T11:08:00.299Z,61.67
2023-03-06T11:10:29.888Z,62.90
2023-03-06T11:13:21.659Z,61.65
2023-03-06T11:16:02.056Z,61.97
2023-03-06T11:18:35.188Z,61.30
2023-03-06T11:21:07.545Z,56.97
2023-03-06T11:26:16.970Z,58.50
2023-03-06T11:28:53.330Z,56.92
2023-03-06T11:31:25.568Z,56.45
2023-03-06T11:33:52.970Z,53.15
2023-03-06T11:36:30.190Z,60.60
2023-03-06T11:38:57.618Z,61.10
2023-03-06T11:41:34.319Z,50.75
2023-03-06T11:44:15.365Z,59.80
2023-03-06T11:46:57.958Z,61.90
2023-03-06T11:53:02.281Z,59.92
2023-03-06T11:55:57.280Z,59.10
2023-03-06T11:58:42.884Z,58.08
2023-03-06T12:01:24.355Z,54.17
2023-03-06T12:04:36.641Z,43.55
2023-03-06T12:07:32.996Z,36.30
2023-03-06T12:10:33.784Z,54.03
2023-03-06T12:13:28.435Z,47.67
2023-03-06T12:16:30.943Z,48.13
2023-03-06T12:19:22.988Z,52.22
2023-03-06T12:21:50.375Z,47.40
2023-03-06T12:24:23.367Z,49.88
2023-03-06T12:27:01.152Z,48.85
2023-03-06T12:29:57.938Z,48.85
2023-03-06T12:32:52.253Z,49.25
2023-03-06T12:35:57.401Z,49.90
2023-03-06T12:38:58.080Z,48.88
2023-03-06T12:41:37.675Z,50.03
2023-03-06T12:44:26.656Z,47.25
2023-03-06T12:47:02.158Z,54.20
2023-03-06T12:49:33.335Z,49.00
2023-03-06T12:52:02.238Z,41.40
2023-03-06T12:54:33.323Z,53.65
2023-03-06T12:57:01.723Z,45.25
2023-03-06T12:59:44.284Z,46.30
2023-03-06T13:04:56.702Z,51.97
2023-03-06T13:07:35.887Z,45.50
2023-03-06T13:10:13.450Z,52.33
2023-03-06T13:12:55.694Z,43.17
2023-03-06T13:15:40.321Z,45.22
2023-03-06T13:18:42.737Z,46.70
2023-03-06T13:21:47.547Z,50.53
2023-03-06T13:24:19.876Z,46.22
2023-03-06T13:29:37.502Z,43.25
2023-03-06T13:32:07.039Z,45.22
2023-03-06T13:34:35.723Z,50.03
2023-03-06T13:37:23.372Z,110.13
2023-03-06T13:39:59.216Z,46.13
2023-03-06T13:42:42.447Z,43.75
2023-03-06T13:45:17.359Z,44.65
2023-03-06T13:48:37.610Z,44.90
2023-03-06T13:50:49.504Z,43.03
2023-03-06T13:53:16.851Z,53.45
2023-03-06T13:56:23.208Z,46.05
2023-03-06T13:59:24.323Z,48.53
2023-03-06T14:02:23.537Z,44.83
2023-03-06T14:04:57.832Z,50.35
2023-03-06T14:07:33.480Z,46.65
2023-03-06T14:10:22.211Z,45.72
2023-03-06T14:12:49.588Z,44.10
2023-03-06T14:15:26.170Z,44.97
2023-03-06T14:18:16.808Z,43.72
2023-03-06T14:20:59.205Z,49.05
2023-03-06T14:23:29.503Z,43.70
2023-03-06T14:26:20.245Z,40.70
2023-03-06T14:28:53.418Z,39.33
2023-03-06T14:31:28.824Z,40.92
2023-03-06T14:34:06.728Z,43.08
2023-03-06T14:36:36.889Z,45.97
2023-03-06T14:39:29.631Z,38.60
2023-03-06T14:44:34.894Z,39.75
2023-03-06T14:47:31.115Z,41.75
2023-03-06T14:50:27.814Z,41.60
2023-03-06T14:52:59.684Z,39.92
2023-03-06T14:55:30.178Z,41.13
2023-03-06T14:58:03.035Z,40.97
2023-03-06T15:00:37.105Z,47.30
2023-03-06T15:03:08.484Z,43.80
2023-03-06T15:05:36.283Z,41.80
2023-03-06T15:08:08.325Z,38.25
2023-03-06T15:10:36.761Z,37.83
2023-03-06T15:13:24.913Z,37.35
2023-03-06T15:16:23.267Z,39.03
2023-03-06T15:19:03.662Z,37.22
2023-03-06T15:21:38.852Z,39.90
2023-03-06T15:24:41.604Z,35.88
2023-03-06T15:27:18.339Z,36.60
2023-03-06T15:29:46.007Z,40.00
2023-03-06T15:32:34.918Z,35.13
2023-03-06T15:35:23.831Z,29.98
2023-03-06T15:37:51.614Z,33.65
2023-03-06T15:40:24.016Z,34.13
2023-03-06T15:45:26.816Z,34.95
2023-03-06T15:47:55.806Z,36.97
2023-03-06T15:50:25.875Z,29.92
2023-03-06T15:52:54.034Z,39.38
2023-03-06T15:55:24.136Z,30.50
2023-03-06T15:57:59.868Z,32.50
2023-03-06T16:00:30.683Z,39.63
2023-03-06T16:02:58.918Z,32.63
2023-03-06T16:05:27.658Z,28.92
2023-03-06T16:07:56.125Z,35.05
2023-03-06T16:10:29.166Z,28.40
2023-03-06T16:13:13.159Z,29.75
2023-03-06T16:15:48.909Z,34.38
2023-03-06T16:18:17.353Z,30.88
2023-03-06T16:20:45.131Z,37.92
2023-03-06T16:23:17.485Z,29.27
2023-03-06T16:28:16.857Z,35.35
2023-03-06T16:30:45.311Z,38.78
2023-03-06T16:33:14.259Z,31.77
2023-03-06T16:35:44.448Z,35.75
2023-03-06T16:38:12.751Z,39.58
2023-03-06T16:40:42.486Z,30.73
2023-03-06T16:43:10.785Z,33.67
2023-03-06T16:45:40.270Z,35.15
2023-03-06T16:48:10.574Z,32.80
2023-03-06T16:50:39.556Z,32.38
2023-03-06T16:53:07.736Z,35.40
2023-03-06T16:55:35.121Z,35.95
2023-03-06T16:58:02.568Z,31.48
2023-03-06T17:00:32.026Z,39.30
2023-03-06T17:03:00.883Z,40.17
2023-03-06T17:05:29.227Z,34.60
2023-03-06T17:07:56.647Z,36.65
2023-03-06T17:10:26.343Z,39.08
2023-03-06T17:12:56.346Z,36.47
2023-03-06T17:15:24.181Z,35.60
2023-03-06T17:17:52.331Z,39.80
2023-03-06T17:20:20.333Z,45.33
2023-03-06T17:22:47.784Z,39.85
2023-03-06T17:25:15.355Z,35.72
2023-03-06T17:27:42.796Z,44.30
2023-03-06T17:30:11.941Z,43.63
2023-03-06T17:32:41.009Z,54.38
2023-03-06T17:35:10.130Z,44.92
2023-03-06T17:37:37.841Z,72.28
2023-03-06T17:40:08.515Z,94.82
2023-03-06T17:42:36.019Z,135.10
2023-03-06T17:45:04.410Z,57.38
2023-03-06T17:47:31.744Z,122.47
2023-03-06T17:49:59.155Z,67.20
2023-03-06T17:52:26.549Z,49.25
2023-03-06T17:54:53.936Z,50.42
2023-03-06T17:57:22.166Z,47.08
2023-03-06T17:59:49.660Z,46.30
2023-03-06T18:02:17.729Z,54.78
2023-03-06T18:04:45.234Z,49.47
2023-03-06T18:07:12.786Z,62.03
2023-03-06T18:09:42.172Z,58.65
2023-03-06T18:12:09.909Z,54.05
2023-03-06T18:14:37.396Z,57.13
2023-03-06T18:17:04.864Z,65.95
2023-03-06T18:19:32.223Z,68.00
2023-03-06T18:22:00.525Z,64.13
2023-03-06T18:24:27.887Z,59.13
2023-03-06T18:26:55.348Z,53.58
2023-03-06T18:29:23.604Z,49.80
2023-03-06T18:31:51.045Z,52.15
2023-03-06T18:34:18.538Z,57.33
2023-03-06T18:36:47.219Z,50.50
2023-03-06T18:39:15.742Z,53.78
2023-03-06T18:41:43.242Z,52.15
2023-03-06T18:44:15.362Z,46.63
2023-03-06T18:46:43.253Z,49.13
2023-03-06T18:49:12.650Z,49.42
2023-03-06T18:51:40.350Z,55.10
2023-03-06T18:54:08.095Z,58.10
2023-03-06T18:56:35.635Z,55.63
2023-03-06T18:59:07.644Z,58.40
2023-03-06T19:01:35.534Z,54.80
2023-03-06T19:04:04.950Z,58.58
2023-03-06T19:06:32.665Z,52.75
2023-03-06T19:09:01.800Z,57.35
2023-03-06T19:11:29.280Z,59.35
2023-03-06T19:13:56.726Z,63.50
2023-03-06T19:16:27.353Z,48.72
2023-03-06T19:18:55.711Z,55.40
2023-03-06T19:21:25.616Z,53.70
2023-03-06T19:23:53.052Z,54.55
2023-03-06T19:26:20.658Z,52.67
2023-03-06T19:28:49.338Z,52.55
2023-03-06T19:31:20.211Z,59.85
2023-03-06T19:33:49.188Z,51.25
2023-03-06T19:36:18.165Z,57.47
2023-03-06T19:38:50.258Z,54.63
2023-03-06T19:41:17.867Z,56.17
2023-03-06T19:43:48.869Z,57.03
2023-03-06T19:46:16.371Z,60.00
2023-03-06T19:48:43.899Z,69.70
2023-03-06T19:51:11.334Z,64.97
2023-03-06T19:53:40.095Z,62.40
2023-03-06T19:56:14.837Z,59.80
2023-03-06T19:58:42.665Z,69.32
2023-03-06T20:01:17.531Z,61.60
2023-03-06T20:03:45.502Z,62.45
2023-03-06T20:06:16.014Z,60.35
2023-03-06T20:08:44.022Z,59.40
2023-03-06T20:11:23.677Z,64.30
2023-03-06T20:13:51.549Z,66.65
2023-03-06T20:16:19.469Z,58.47
2023-03-06T20:18:47.069Z,63.88
2023-03-06T20:21:15.470Z,60.60
2023-03-06T20:23:43.262Z,72.18
2023-03-06T20:26:13.009Z,85.43
2023-03-06T20:28:41.878Z,65.25
2023-03-06T20:31:17.762Z,59.83
2023-03-06T20:33:47.300Z,62.13
2023-03-06T20:36:17.335Z,64.53
2023-03-06T20:38:46.823Z,64.60
2023-03-06T20:41:19.804Z,76.47
2023-03-06T20:43:47.442Z,66.18
2023-03-06T20:46:15.716Z,61.97
2023-03-06T20:48:43.863Z,64.45
2023-03-06T20:51:21.458Z,69.35
2023-03-06T20:53:50.739Z,67.72
2023-03-06T20:56:20.538Z,68.65
2023-03-06T20:58:48.013Z,70.53
2023-03-06T21:01:20.230Z,70.10
2023-03-06T21:06:15.731Z,65.05
2023-03-06T21:08:43.429Z,78.60
2023-03-06T21:11:11.111Z,67.45
2023-03-06T21:13:38.573Z,61.05
2023-03-06T21:16:07.864Z,51.97
2023-03-06T21:18:35.655Z,60.22
2023-03-06T21:21:08.374Z,61.90
2023-03-06T21:23:35.899Z,60.08
2023-03-06T21:26:03.807Z,57.30
2023-03-06T21:28:31.524Z,117.25
2023-03-06T21:31:02.569Z,74.85
2023-03-06T21:33:36.168Z,61.30
2023-03-06T21:36:04.425Z,68.50
2023-03-06T21:38:32.121Z,60.70
2023-03-06T21:41:20.240Z,60.50
2023-03-06T21:43:47.942Z,65.68
2023-03-06T21:46:15.533Z,61.17
2023-03-06T21:48:42.963Z,59.63
2023-03-06T21:51:18.307Z,60.05
2023-03-06T21:53:46.946Z,64.93
2023-03-06T21:56:17.094Z,60.67
2023-03-06T21:58:45.599Z,74.82
2023-03-06T22:01:19.494Z,69.50
2023-03-06T22:03:47.303Z,68.72
2023-03-06T22:06:17.719Z,64.03
2023-03-06T22:08:45.876Z,62.00
2023-03-06T22:11:18.994Z,55.58
2023-03-06T22:13:48.098Z,64.20
2023-03-06T22:16:16.530Z,56.45
2023-03-06T22:18:48.723Z,66.70
2023-03-06T22:21:18.856Z,67.07
2023-03-06T22:23:54.761Z,64.47
2023-03-06T22:26:22.323Z,54.92
2023-03-06T22:28:49.870Z,67.90
2023-03-06T22:31:20.414Z,59.80
2023-03-06T22:33:54.222Z,58.72
2023-03-06T22:36:23.029Z,60.25
2023-03-06T22:38:54.443Z,65.47
2023-03-06T22:41:22.531Z,61.00
2023-03-06T22:43:49.931Z,60.63
2023-03-06T22:46:18.414Z,56.90
2023-03-06T22:48:46.041Z,56.42
2023-03-06T22:51:15.968Z,69.53
2023-03-06T22:53:44.483Z,63.22
2023-03-06T22:56:15.033Z,64.60
2023-03-06T22:58:44.884Z,67.77
2023-03-06T23:01:12.325Z,61.60
2023-03-06T23:03:42.413Z,65.13
2023-03-06T23:06:13.015Z,73.10
2023-03-06T23:08:41.595Z,60.40
2023-03-06T23:11:12.016Z,70.18
2023-03-06T23:13:58.338Z,63.35
2023-03-06T23:16:44.490Z,70.53
2023-03-06T23:19:30.557Z,70.60
2023-03-06T23:22:16.323Z,71.03
2023-03-06T23:25:02.764Z,67.68
2023-03-06T23:27:30.202Z,68.55
2023-03-06T23:29:59.061Z,78.43
2023-03-06T23:32:26.644Z,69.40
2023-03-06T23:34:56.061Z,73.55
2023-03-06T23:37:23.511Z,77.53
2023-03-06T23:39:51.538Z,71.47
2023-03-06T23:42:20.008Z,69.80
2023-03-06T23:44:47.435Z,65.93
2023-03-06T23:47:17.192Z,65.68
2023-03-06T23:49:44.702Z,58.03
2023-03-06T23:52:12.203Z,60.92
2023-03-06T23:54:40.498Z,70.47
2023-03-06T23:57:07.908Z,62.40
2023-03-06T23:59:35.371Z,65.63
